Flight Track Log - Related Links

Times and Time Zones

All times are in EDT time to prevent confusion due to time zone crossing. See the N762NC flight status page for this flight to view local times or setup timezone preferences in your user account.


Time Position Orientation Groundspeed Altitude Reporting Facility
EDT Latitude Longitude Course Direction KTS MPH feet Rate Location/Type
Mon 08:28:25 AM 33.6500 -84.3667 North 202 232 2,500  Level Atlanta TRACON
Mon 08:29:25 AM 33.6833 -84.2667 68° East 288 331 4,700 2,300 Climbing Atlanta TRACON
Mon 08:30:00 AM 33.9773 -84.3432 12° North  Level FlightAware Approximate
Mon 08:30:25 AM 33.7500 -84.2500 12° North 291 335 7,100  Level Atlanta TRACON
Mon 08:31:00 AM 34.0894 -84.3158 North  Level FlightAware Approximate
Mon 08:31:25 AM 33.8333 -84.2500 360° North 308 354 9,200  Level Atlanta TRACON
Mon 08:32:00 AM 34.2045 -84.3000 North  Level FlightAware Approximate
Mon 08:33:00 AM 34.3205 -84.3000 North  Level FlightAware Approximate
Mon 08:33:48 AM 34.0592 -84.2769 354° North 360 414 12,400  Level Atlanta Center
Mon 08:34:48 AM 34.1614 -84.3025 348° North 375 432 14,300 1,800 Climbing Atlanta Center
Mon 08:35:48 AM 34.2697 -84.3203 352° North 380 437 16,000 1,650 Climbing Atlanta Center
Mon 08:36:48 AM 34.3825 -84.3333 355° North 398 458 17,600 1,400 Climbing Atlanta Center
Mon 08:37:48 AM 34.5078 -84.3386 358° North 404 465 18,800 1,300 Climbing Atlanta Center
Mon 08:38:48 AM 34.6286 -84.3367 North 414 476 20,200 1,200 Climbing Atlanta Center
Mon 08:39:48 AM 34.7497 -84.3422 358° North 424 488 21,200 1,100 Climbing Atlanta Center
Mon 08:40:48 AM 34.8769 -84.3400 North 438 504 22,400 1,150 Climbing Atlanta Center
Mon 08:41:48 AM 34.9856 -84.3506 355° North 445 512 23,500 1,000 Climbing Atlanta Center
Mon 08:42:48 AM 35.1169 -84.3561 358° North 445 512 24,400 900 Climbing Atlanta Center
Mon 08:43:48 AM 35.2483 -84.3517 North 458 527 25,300 850 Climbing Atlanta Center
Mon 08:44:48 AM 35.3842 -84.3572 358° North 470 541 26,100 850 Climbing Atlanta Center
Mon 08:45:48 AM 35.5197 -84.3653 357° North 480 552 27,000 950 Climbing Atlanta Center
Mon 08:46:48 AM 35.6739 -84.3686 359° North 489 563 28,000 950 Climbing Atlanta Center
Mon 08:47:48 AM 35.8139 -84.3589 North 495 570 28,900 950 Climbing Atlanta Center
Mon 08:48:48 AM 35.9517 -84.3439 North 495 570 29,900 413 Climbing Atlanta Center
Mon 08:50:28 AM 36.1764 -84.3375 North 498 573 30,000 37 Climbing Indianapolis Center
Mon 08:51:30 AM 36.3161 -84.3275 North 504 580 30,000  Level Indianapolis Center
Mon 08:52:31 AM 36.4550 -84.3133 North 501 577 30,000  Level Indianapolis Center
Mon 08:53:33 AM 36.6083 -84.3086 North 497 572 30,000  Level Indianapolis Center
Mon 08:54:35 AM 36.7469 -84.2992 North 497 572 30,000  Level Indianapolis Center
Mon 08:55:37 AM 36.8847 -84.2856 North 495 570 30,000  Level Indianapolis Center
Mon 08:56:38 AM 37.0225 -84.2839 North 492 566 30,000 -49 Level Indianapolis Center
Mon 08:57:40 AM 37.1600 -84.2719 North 494 568 29,900  Descending Indianapolis Center
Mon 08:58:42 AM 37.3178 -84.2586 North 486 559 30,000 48 Climbing Indianapolis Center
Mon 08:59:44 AM 37.4519 -84.2567 North 480 552 30,000  Level Indianapolis Center
Mon 09:00:46 AM 37.5856 -84.2458 North 477 549 30,000 -49 Level Indianapolis Center
Mon 09:01:47 AM 37.7192 -84.2442 North 477 549 29,900 -439 Descending Indianapolis Center
Mon 09:02:49 AM 37.8494 -84.2411 North 467 537 29,100 -774 Descending Indianapolis Center
Mon 09:03:51 AM 37.9772 -84.2328 North 460 529 28,300 -774 Descending Indianapolis Center
Mon 09:04:53 AM 38.1014 -84.2500 354° North 447 514 27,500 -2,000 Descending Indianapolis Center
Mon 09:05:54 AM 38.2456 -84.2611 357° North 441 507 24,200 -3,073 Descending Indianapolis Center
Mon 09:06:56 AM 38.3625 -84.2769 354° North 424 488 21,200 -2,903 Descending Indianapolis Center
Mon 09:07:58 AM 38.4731 -84.3078 348° North 407 468 18,200 -2,806 Descending Indianapolis Center
Mon 09:09:00 AM 38.5833 -84.3189 355° North 397 457 15,400 -2,732 Descending Indianapolis Center
Mon 09:10:01 AM 38.6981 -84.3383 352° North 383 441 12,600 -1,707 Descending Indianapolis Center
Mon 09:11:03 AM 38.7992 -84.3747 344° North 375 432 11,900 -290 Descending Indianapolis Center
Mon 09:12:05 AM 38.8989 -84.4089 345° North 368 423 12,000 48 Climbing Indianapolis Center
Mon 09:13:07 AM 38.9978 -84.4353 348° North 361 415 12,000 -49 Level Indianapolis Center
Mon 09:14:08 AM 39.0947 -84.4728 343° North 362 417 11,900 -495 Descending Indianapolis Center
Mon 09:14:56 AM 39.1739 -84.5111 339° North 358 412 11,100 -944 Descending Indianapolis Center
Mon 09:15:56 AM 39.2672 -84.4872 11° North 369 425 10,200 -545 Descending Indianapolis Center
Mon 09:16:57 AM 39.3647 -84.4236 27° Northeast 362 417 10,000 -98 Descending Indianapolis Center
Mon 09:17:58 AM 39.4428 -84.3617 31° Northeast 322 371 10,000 -443 Level Indianapolis Center
Mon 09:18:59 AM 39.5142 -84.3067 31° Northeast 290 334 9,100 -1,190 Descending Indianapolis Center
Mon 09:19:59 AM 39.5878 -84.2872 12° North 273 314 7,600 -1,388 Descending Indianapolis Center
Mon 09:21:00 AM 39.6608 -84.2919 357° North 261 300 6,300 -787 Descending Indianapolis Center
Mon 09:22:01 AM 39.7269 -84.2658 17° North 254 292 6,000 -148 Descending Indianapolis Center
Mon 09:23:02 AM 39.7956 -84.2344 19° North 237 273 6,000  Level Indianapolis Center
Mon 09:24:03 AM 39.8319 -84.1672 55° Northeast 228 262 6,000 -793 Level Indianapolis Center
Mon 09:25:03 AM 39.8711 -84.0950 55° Northeast 236 272 4,400 -1,388 Descending Indianapolis Center
Mon 09:26:04 AM 39.9100 -84.0253 54° Northeast 231 266 3,200 -738 Descending Indianapolis Center
Mon 09:27:05 AM 39.9556 -83.9925 29° Northeast 204 235 2,900 -79 Descending Indianapolis Center
Mon 09:28:35 AM 39.9814 -84.0753 292° West 203 234 3,000 -197 Climbing Indianapolis Center
Mon 09:29:37 AM 39.9556 -84.1339 240° Southwest 190 219 2,400 -710 Descending Indianapolis Center
Mon 09:30:08 AM 39.9400 -84.1619 234° Southwest 170 196 1,900 -774 Descending Indianapolis Center
Mon 09:30:39 AM 39.9292 -84.1819 235° Southwest 176 203 1,600 -516 Descending Indianapolis Center
Mon 09:31:41 AM 39.9064 -84.2231 234° Southwest 166 191 1,100 -484 Descending Indianapolis Center

Login

Don't have an account? Register now (free) for customized features, flight alerts, and more!